Time;durP1;ratioP1;P1;durP2;ratioP2;P2;SDS_P1;SDS_P2;PMS_P1;PMS_P2;Temp;Humidity;BMP_temperature;BMP_pressure;BME280_temperature;BME280_humidity;BME280_pressure;Samples;Min_cycle;Max_cycle;Signal;HPM_P1;HPM_P2
2022/09/09 00:02:20;;;;;;;34.53;16.65;;;;;;;14.51;99.76;94523.94;1655558;85;21080;-50
2022/09/09 00:05:22;;;;;;;28.12;15.35;;;;;;;14.53;99.53;94521.45;1648638;85;21047;-50
2022/09/09 00:07:52;;;;;;;26.70;17.52;;;;;;;14.55;99.61;94516.80;1656584;85;21076;-49
2022/09/09 00:10:42;;;;;;;29.23;16.77;;;;;;;14.48;99.45;94516.56;1631877;87;21145;-50
2022/09/09 00:13:24;;;;;;;27.10;16.20;;;;;;;14.46;99.42;94517.66;1633239;87;21596;-51
2022/09/09 00:16:12;;;;;;;36.77;18.62;;;;;;;14.43;99.34;94518.63;1629767;87;20980;-49
2022/09/09 00:19:20;;;;;;;25.35;16.00;;;;;;;14.43;99.57;94510.31;1619796;87;21083;-51
2022/09/09 00:22:17;;;;;;;27.37;17.20;;;;;;;14.44;99.40;94507.70;1630999;87;21032;-50
2022/09/09 00:24:55;;;;;;;26.27;16.50;;;;;;;14.47;99.39;94502.58;1632284;87;21930;-51
2022/09/09 00:27:42;;;;;;;25.12;16.42;;;;;;;14.51;99.12;94509.32;1630635;87;20971;-50
2022/09/09 00:30:22;;;;;;;25.82;16.80;;;;;;;14.51;99.26;94502.40;1627685;87;21028;-51
2022/09/09 00:32:51;;;;;;;24.92;17.15;;;;;;;14.56;99.54;94504.48;1628436;88;21039;-49
2022/09/09 00:35:25;;;;;;;27.05;15.80;;;;;;;14.56;99.04;94500.34;1629240;88;21027;-50
2022/09/09 00:37:56;;;;;;;21.95;14.00;;;;;;;14.56;98.80;94512.19;1619116;88;21158;-49
2022/09/09 00:40:40;;;;;;;27.77;13.62;;;;;;;14.59;98.92;94501.54;1629138;88;21485;-50
2022/09/09 00:43:32;;;;;;;27.17;14.68;;;;;;;14.58;98.50;94505.55;1629237;88;21571;-50
2022/09/09 00:46:38;;;;;;;24.85;16.45;;;;;;;14.53;98.37;94499.91;1604204;88;21582;-50
2022/09/09 00:49:32;;;;;;;22.73;14.80;;;;;;;14.47;98.27;94495.66;1610558;88;21240;-50
2022/09/09 00:52:10;;;;;;;23.87;15.00;;;;;;;14.44;98.50;94493.11;1610236;89;21172;-50
2022/09/09 00:54:51;;;;;;;27.85;16.45;;;;;;;14.43;98.48;94503.40;1627634;88;21092;-50
2022/09/09 00:57:31;;;;;;;29.25;18.37;;;;;;;14.44;98.68;94491.09;1621777;88;20993;-50
2022/09/09 01:00:27;;;;;;;30.40;20.52;;;;;;;14.45;98.73;94493.25;1629842;87;21028;-50
2022/09/09 01:03:20;;;;;;;25.68;17.15;;;;;;;14.42;98.66;94499.74;1627460;86;21046;-50
2022/09/09 01:06:18;;;;;;;20.45;13.78;;;;;;;14.37;98.81;94494.11;1594076;89;21383;-50
2022/09/09 01:09:03;;;;;;;44.65;14.78;;;;;;;14.34;99.11;94502.73;1627455;87;21505;-50
2022/09/09 01:11:59;;;;;;;24.60;14.50;;;;;;;14.33;99.34;94492.91;1596122;88;21119;-48
2022/09/09 01:14:52;;;;;;;25.92;15.28;;;;;;;14.33;99.57;94499.08;1622995;87;21036;-50
2022/09/09 01:17:27;;;;;;;22.10;13.68;;;;;;;14.32;99.35;94493.40;1633256;87;21511;-51
2022/09/09 01:20:01;;;;;;;23.40;13.32;;;;;;;14.29;99.14;94490.17;1624352;87;21292;-49
2022/09/09 01:22:36;;;;;;;30.92;15.08;;;;;;;14.27;99.28;94482.37;1629873;87;21516;-50
2022/09/09 01:25:27;;;;;;;22.37;14.90;;;;;;;14.28;99.69;94481.73;1676734;84;21018;-50
2022/09/09 01:28:00;;;;;;;22.07;14.10;;;;;;;14.33;99.93;94472.78;1657657;85;21086;-50
2022/09/09 01:30:28;;;;;;;26.65;13.75;;;;;;;14.39;100.00;94470.23;1690925;83;21010;-50
2022/09/09 01:32:58;;;;;;;19.25;13.40;;;;;;;14.47;100.00;94475.54;1666503;85;21434;-50
2022/09/09 01:35:51;;;;;;;22.02;12.78;;;;;;;14.53;99.89;94474.39;1666513;84;20975;-50
2022/09/09 01:38:18;;;;;;;18.92;13.08;;;;;;;14.62;99.86;94482.58;1666221;84;21036;-49
2022/09/09 01:40:46;;;;;;;21.35;13.65;;;;;;;14.70;99.38;94479.58;1627769;84;21217;-50
2022/09/09 01:43:14;;;;;;;17.45;11.22;;;;;;;14.71;98.92;94474.18;1669708;83;21458;-50
2022/09/09 01:45:41;;;;;;;23.70;13.80;;;;;;;14.75;98.82;94481.66;1671134;83;21249;-50
2022/09/09 01:48:08;;;;;;;22.37;13.95;;;;;;;14.75;98.68;94480.27;1664814;83;21063;-50
2022/09/09 01:50:39;;;;;;;26.70;13.93;;;;;;;14.75;98.55;94481.66;1672936;84;21141;-49
2022/09/09 01:53:07;;;;;;;19.75;14.33;;;;;;;14.75;98.56;94479.50;1690494;85;21029;-49
2022/09/09 01:55:40;;;;;;;25.75;14.83;;;;;;;14.74;98.31;94488.44;1687474;85;20959;-50
2022/09/09 01:58:27;;;;;;;22.07;13.88;;;;;;;14.73;98.30;94482.77;1690736;85;22270;-49
2022/09/09 02:01:07;;;;;;;23.98;13.38;;;;;;;14.68;97.86;94475.14;1687540;84;21252;-50
2022/09/09 02:03:34;;;;;;;22.50;12.05;;;;;;;14.65;98.00;94477.46;1667404;85;21464;-49
2022/09/09 02:06:38;;;;;;;24.00;14.05;;;;;;;14.66;98.39;94466.53;1686962;85;21435;-49
2022/09/09 02:09:09;;;;;;;30.90;15.58;;;;;;;14.65;98.51;94469.16;1682087;84;21484;-49
2022/09/09 02:11:38;;;;;;;22.93;13.68;;;;;;;14.56;98.40;94478.97;1667007;84;21278;-49
2022/09/09 02:14:13;;;;;;;24.23;13.83;;;;;;;14.50;98.76;94477.34;1669934;84;21016;-49
2022/09/09 02:16:53;;;;;;;21.00;13.75;;;;;;;14.49;98.79;94479.97;1684700;85;20992;-50
2022/09/09 02:19:30;;;;;;;22.98;14.23;;;;;;;14.47;98.94;94481.08;1670371;84;20990;-51
2022/09/09 02:22:04;;;;;;;25.82;14.93;;;;;;;14.48;99.09;94486.11;1679180;83;20966;-49
2022/09/09 02:24:35;;;;;;;26.57;13.03;;;;;;;14.47;99.39;94476.92;1688857;85;21203;-50
2022/09/09 02:27:06;;;;;;;20.15;11.63;;;;;;;14.52;99.91;94484.55;1676215;84;21018;-50
2022/09/09 02:29:42;;;;;;;17.17;11.60;;;;;;;14.59;99.84;94483.54;1679047;84;20963;-49
2022/09/09 02:32:17;;;;;;;18.73;12.88;;;;;;;14.63;99.59;94488.25;1683601;84;21034;-50
2022/09/09 02:34:47;;;;;;;25.88;14.58;;;;;;;14.68;99.88;94488.98;1671323;84;20987;-50
2022/09/09 02:37:17;;;;;;;24.72;13.85;;;;;;;14.71;99.82;94492.17;1665430;85;21123;-50
2022/09/09 02:39:47;;;;;;;17.75;12.33;;;;;;;14.74;99.99;94502.30;1661782;84;22254;-50
2022/09/09 02:42:15;;;;;;;22.02;12.70;;;;;;;14.77;99.45;94502.71;1685448;84;21483;-49
2022/09/09 02:44:42;;;;;;;26.60;14.28;;;;;;;14.80;99.05;94499.61;1685997;84;21034;-50
2022/09/09 02:47:28;;;;;;;24.77;14.58;;;;;;;14.83;99.77;94508.34;1688089;85;21015;-50
2022/09/09 02:50:21;;;;;;;22.00;13.95;;;;;;;14.90;100.00;94507.33;1668548;85;21275;-51
2022/09/09 02:53:07;;;;;;;20.65;12.35;;;;;;;14.98;99.88;94499.39;1684532;85;21050;-50
2022/09/09 02:55:49;;;;;;;20.70;14.00;;;;;;;15.01;99.37;94508.87;1685147;85;20966;-50
2022/09/09 02:58:18;;;;;;;18.95;13.13;;;;;;;15.05;99.37;94508.07;1688556;85;21014;-50
2022/09/09 03:00:48;;;;;;;21.60;14.93;;;;;;;15.09;99.28;94500.92;1686397;83;21014;-50
2022/09/09 03:03:21;;;;;;;23.20;13.40;;;;;;;15.12;98.91;94502.73;1690479;85;21912;-50
2022/09/09 03:05:44;;;;;;;18.30;11.45;;;;;;;15.10;98.59;94494.91;1689652;84;21098;-50
2022/09/09 03:08:12;;;;;;;16.23;12.45;;;;;;;15.09;98.68;94498.93;1685685;85;20967;-51
2022/09/09 03:10:41;;;;;;;21.45;12.68;;;;;;;15.11;98.78;94501.98;1690693;85;21010;-50
2022/09/09 03:13:08;;;;;;;17.45;13.43;;;;;;;15.11;98.84;94506.74;1655924;85;21039;-50
2022/09/09 03:15:37;;;;;;;21.97;12.98;;;;;;;15.13;99.05;94510.56;1673332;84;21260;-51
2022/09/09 03:18:04;;;;;;;21.35;11.68;;;;;;;15.17;99.42;94513.90;1671284;85;20971;-51
2022/09/09 03:20:31;;;;;;;16.48;11.45;;;;;;;15.20;98.85;94518.47;1686883;85;20958;-51
2022/09/09 03:22:59;;;;;;;16.45;12.85;;;;;;;15.21;98.75;94522.77;1669469;84;21032;-50
2022/09/09 03:25:26;;;;;;;23.52;13.55;;;;;;;15.22;99.04;94510.44;1661876;84;21444;-50
2022/09/09 03:27:54;;;;;;;17.60;12.95;;;;;;;15.26;99.13;94508.25;1661785;84;22152;-50
2022/09/09 03:30:23;;;;;;;16.50;12.60;;;;;;;15.24;98.84;94494.11;1664386;84;20976;-49
2022/09/09 03:32:50;;;;;;;16.00;11.57;;;;;;;15.21;99.05;94501.23;1666388;83;21706;-51
2022/09/09 03:35:17;;;;;;;20.17;12.28;;;;;;;15.24;99.64;94494.11;1669768;85;21057;-50
2022/09/09 03:37:44;;;;;;;19.10;13.10;;;;;;;15.23;99.40;94493.20;1660447;84;21028;-51
2022/09/09 03:40:11;;;;;;;18.23;12.93;;;;;;;15.19;99.26;94490.63;1683967;85;21981;-50
2022/09/09 03:42:38;;;;;;;16.55;12.65;;;;;;;15.15;99.47;94493.47;1690214;83;21023;-50
2022/09/09 03:45:08;;;;;;;21.23;12.73;;;;;;;15.08;99.42;94493.86;1677237;83;21507;-49
2022/09/09 03:47:38;;;;;;;13.88;11.00;;;;;;;15.03;99.37;94495.30;1671275;84;21011;-50
2022/09/09 03:50:08;;;;;;;17.23;12.33;;;;;;;14.99;99.82;94494.73;1681730;85;21398;-51
2022/09/09 03:52:37;;;;;;;18.30;12.90;;;;;;;15.01;100.00;94499.17;1678043;85;21255;-48
2022/09/09 03:55:06;;;;;;;15.88;13.08;;;;;;;15.07;100.00;94498.66;1685710;85;21415;-49
2022/09/09 03:57:34;;;;;;;20.50;13.93;;;;;;;15.12;100.00;94502.12;1687258;85;21032;-49
2022/09/09 04:00:04;;;;;;;15.23;11.20;;;;;;;15.13;100.00;94513.34;1687274;85;21539;-48
2022/09/09 04:02:33;;;;;;;15.50;11.15;;;;;;;15.14;100.00;94504.42;1688944;84;20999;-49
2022/09/09 04:05:00;;;;;;;15.80;11.10;;;;;;;15.20;100.00;94498.33;1690582;83;21579;-50
2022/09/09 04:07:27;;;;;;;18.17;12.30;;;;;;;15.29;100.00;94505.92;1690320;85;21026;-51
2022/09/09 04:09:57;;;;;;;15.93;13.03;;;;;;;15.33;100.00;94505.09;1689160;84;21478;-50
2022/09/09 04:12:24;;;;;;;18.90;11.83;;;;;;;15.40;100.00;94498.37;1677665;85;21007;-50
2022/09/09 04:14:51;;;;;;;11.95;10.60;;;;;;;15.39;100.00;94505.92;1665445;83;21484;-50
2022/09/09 04:17:18;;;;;;;14.10;12.58;;;;;;;15.38;100.00;94500.23;1659269;85;21211;-51
2022/09/09 04:19:45;;;;;;;16.35;12.25;;;;;;;15.43;100.00;94507.11;1657131;85;20980;-51
2022/09/09 04:22:12;;;;;;;18.55;14.60;;;;;;;15.46;100.00;94502.75;1683203;85;20966;-50
2022/09/09 04:24:38;;;;;;;15.28;11.90;;;;;;;15.44;100.00;94501.09;1688295;83;21013;-49
2022/09/09 04:27:06;;;;;;;16.75;12.10;;;;;;;15.41;100.00;94502.06;1660735;84;21014;-50
2022/09/09 04:29:33;;;;;;;14.20;12.28;;;;;;;15.33;99.92;94507.11;1690909;84;21256;-50
2022/09/09 04:32:00;;;;;;;16.10;13.03;;;;;;;15.28;100.00;94504.98;1689159;83;21089;-50
2022/09/09 04:34:27;;;;;;;17.52;13.35;;;;;;;15.30;100.00;94502.51;1651415;86;21070;-51
2022/09/09 04:36:55;;;;;;;18.27;13.83;;;;;;;15.29;100.00;94501.77;1679297;85;21027;-52
2022/09/09 04:39:21;;;;;;;20.10;12.30;;;;;;;15.28;100.00;94500.82;1690563;85;21137;-50
2022/09/09 04:41:49;;;;;;;14.70;11.30;;;;;;;15.29;100.00;94493.45;1687335;83;21046;-53
2022/09/09 04:44:16;;;;;;;14.85;12.53;;;;;;;15.35;100.00;94488.73;1678103;83;21063;-52
2022/09/09 04:46:43;;;;;;;17.52;12.43;;;;;;;15.44;100.00;94487.23;1666208;85;21476;-54
2022/09/09 04:49:10;;;;;;;21.90;13.85;;;;;;;15.48;100.00;94486.39;1684458;85;21006;-57
2022/09/09 04:51:37;;;;;;;13.53;11.93;;;;;;;15.49;100.00;94481.59;1683921;85;21156;-56
2022/09/09 04:54:05;;;;;;;13.85;11.20;;;;;;;15.50;100.00;94481.13;1671667;85;21237;-49
2022/09/09 04:56:32;;;;;;;21.68;12.90;;;;;;;15.51;100.00;94475.72;1677970;85;21010;-47
2022/09/09 04:59:02;;;;;;;19.80;12.70;;;;;;;15.53;100.00;94471.09;1683474;85;21028;-53
2022/09/09 05:01:38;;;;;;;15.48;13.13;;;;;;;15.59;100.00;94465.75;1656757;85;21557;-54
2022/09/09 05:04:05;;;;;;;14.50;12.75;;;;;;;15.60;100.00;94464.50;1686660;83;20987;-53
2022/09/09 05:06:36;;;;;;;14.75;12.55;;;;;;;15.63;100.00;94466.30;1687521;83;21296;-53
2022/09/09 05:09:03;;;;;;;24.85;12.45;;;;;;;15.65;99.66;94456.86;1687366;85;20971;-54
2022/09/09 05:11:32;;;;;;;22.45;17.52;;;;;;;15.66;99.21;94452.06;1690554;83;21090;-52
2022/09/09 05:14:14;;;;;;;31.37;23.77;;;;;;;15.64;99.24;94458.73;1658702;84;21449;-51
2022/09/09 05:16:41;;;;;;;27.13;20.62;;;;;;;15.62;99.41;94453.68;1679365;83;21090;-53
2022/09/09 05:19:09;;;;;;;21.35;15.23;;;;;;;15.63;99.69;94449.66;1656770;86;21252;-51
2022/09/09 05:21:37;;;;;;;14.70;13.10;;;;;;;15.66;99.87;94447.30;1631381;85;21036;-50
2022/09/09 05:24:05;;;;;;;19.92;15.00;;;;;;;15.73;100.00;94441.31;1673225;84;21097;-50
2022/09/09 05:26:33;;;;;;;17.82;13.80;;;;;;;15.75;100.00;94440.20;1678981;84;21090;-51
2022/09/09 05:29:01;;;;;;;16.23;13.25;;;;;;;15.76;99.45;94440.33;1691471;84;21009;-52
2022/09/09 05:31:30;;;;;;;20.80;13.48;;;;;;;15.71;99.27;94443.81;1667293;84;21267;-51
2022/09/09 05:33:56;;;;;;;17.45;13.60;;;;;;;15.66;99.19;94433.42;1644253;85;21090;-52
2022/09/09 05:36:23;;;;;;;19.80;14.98;;;;;;;15.56;99.42;94434.06;1661216;85;20983;-51
2022/09/09 05:38:53;;;;;;;18.10;14.93;;;;;;;15.49;100.00;94417.83;1674120;83;21027;-52
2022/09/09 05:41:20;;;;;;;18.45;16.40;;;;;;;15.47;100.00;94416.95;1647642;84;21101;-52
2022/09/09 05:43:48;;;;;;;16.27;14.28;;;;;;;15.47;100.00;94412.02;1653629;85;21107;-54
2022/09/09 05:46:18;;;;;;;15.53;13.80;;;;;;;15.53;100.00;94410.08;1663217;83;21154;-51
2022/09/09 05:48:47;;;;;;;19.77;13.78;;;;;;;15.58;100.00;94407.35;1670152;85;21055;-52
2022/09/09 05:51:17;;;;;;;17.62;14.38;;;;;;;15.63;100.00;94397.58;1659860;85;21174;-54
2022/09/09 05:53:45;;;;;;;15.30;12.90;;;;;;;15.65;100.00;94389.53;1628893;86;21105;-53
2022/09/09 05:56:18;;;;;;;17.80;14.65;;;;;;;15.61;100.00;94381.44;1643478;86;21265;-51
2022/09/09 05:58:46;;;;;;;13.93;12.53;;;;;;;15.57;100.00;94389.19;1654727;85;21057;-51
2022/09/09 06:01:20;;;;;;;15.32;12.75;;;;;;;15.55;100.00;94383.37;1641182;85;21526;-52
2022/09/09 06:03:48;;;;;;;14.93;12.23;;;;;;;15.55;100.00;94381.24;1655145;86;21334;-53
2022/09/09 06:06:20;;;;;;;14.55;12.82;;;;;;;15.56;100.00;94375.19;1670857;83;21399;-54
2022/09/09 06:08:47;;;;;;;21.70;14.00;;;;;;;15.58;100.00;94373.33;1611747;86;21196;-54
2022/09/09 06:11:21;;;;;;;17.57;12.43;;;;;;;15.63;100.00;94372.01;1657444;83;21044;-53
2022/09/09 06:13:53;;;;;;;16.57;14.35;;;;;;;15.73;100.00;94368.45;1666928;83;21040;-53
2022/09/09 06:16:19;;;;;;;16.62;11.33;;;;;;;15.80;100.00;94367.39;1661498;83;21076;-56
2022/09/09 06:18:50;;;;;;;16.35;12.23;;;;;;;15.81;100.00;94374.47;1687587;84;21002;-55
2022/09/09 06:21:32;;;;;;;;;;;;;;;15.79;100.00;94371.42;1663709;84;21344;-52
2022/09/09 06:24:03;;;;;;;13.35;10.90;;;;;;;15.78;100.00;94360.19;1670309;84;20262;-55
2022/09/09 06:26:33;;;;;;;11.85;9.58;;;;;;;15.73;100.00;94363.66;1666394;84;21079;-55
2022/09/09 06:29:03;;;;;;;13.25;10.82;;;;;;;15.76;100.00;94355.73;1669495;84;21079;-56
2022/09/09 06:31:33;;;;;;;18.05;15.65;;;;;;;15.80;100.00;94356.91;1687903;83;21591;-55
2022/09/09 06:34:04;;;;;;;15.80;13.98;;;;;;;15.79;100.00;94345.07;1683661;83;21248;-54
2022/09/09 06:36:34;;;;;;;28.10;25.23;;;;;;;15.79;100.00;94366.48;1662927;83;21052;-54
2022/09/09 06:39:01;;;;;;;19.17;13.60;;;;;;;15.76;100.00;94373.77;1655741;85;21078;-53
2022/09/09 06:41:32;;;;;;;10.50;9.50;;;;;;;15.76;100.00;94373.77;1663033;85;20996;-55
2022/09/09 06:44:00;;;;;;;12.98;11.30;;;;;;;15.81;100.00;94385.56;1671702;83;21174;-53
2022/09/09 06:46:32;;;;;;;14.35;12.85;;;;;;;15.90;100.00;94395.73;1671068;84;21287;-54
2022/09/09 06:49:00;;;;;;;13.43;12.00;;;;;;;15.99;100.00;94389.40;1678029;83;22206;-52
2022/09/09 06:51:31;;;;;;;12.85;11.55;;;;;;;16.06;100.00;94389.59;1682283;83;21081;-57
2022/09/09 06:54:02;;;;;;;13.25;10.78;;;;;;;16.11;100.00;94385.45;1691205;83;21111;-53
2022/09/09 06:56:45;;;;;;;11.25;10.13;;;;;;;16.15;100.00;94379.08;1671334;84;21010;-49
2022/09/09 06:59:10;;;;;;;15.88;11.83;;;;;;;16.21;100.00;94378.48;1676435;83;21136;-52
2022/09/09 07:01:40;;;;;;;17.45;10.98;;;;;;;16.29;100.00;94382.33;1672155;81;21012;-51
2022/09/09 07:04:11;;;;;;;13.32;11.93;;;;;;;16.31;100.00;94386.14;1655791;84;21068;-51
2022/09/09 07:06:43;;;;;;;17.73;11.45;;;;;;;16.32;100.00;94392.45;1663951;83;21099;-54
2022/09/09 07:09:13;;;;;;;12.45;11.15;;;;;;;16.36;100.00;94388.87;1675905;83;21053;-54
2022/09/09 07:11:46;;;;;;;13.00;11.57;;;;;;;16.40;100.00;94378.30;1695687;83;21241;-53
2022/09/09 07:14:15;;;;;;;14.70;13.22;;;;;;;16.41;100.00;94378.42;1697327;82;21069;-54
2022/09/09 07:16:44;;;;;;;14.30;12.53;;;;;;;16.42;100.00;94382.11;1670693;83;21087;-52
2022/09/09 07:19:12;;;;;;;15.10;12.68;;;;;;;16.46;100.00;94380.48;1674724;83;21161;-54
2022/09/09 07:21:42;;;;;;;14.55;12.13;;;;;;;16.44;100.00;94381.59;1656004;83;21123;-54
2022/09/09 07:24:10;;;;;;;13.35;11.73;;;;;;;16.48;100.00;94382.13;1654390;84;21275;-54
2022/09/09 07:26:39;;;;;;;14.58;12.33;;;;;;;16.53;100.00;94394.67;1653596;85;21017;-55
2022/09/09 07:29:08;;;;;;;15.25;13.72;;;;;;;16.56;100.00;94395.72;1619594;86;21054;-58
2022/09/09 07:31:38;;;;;;;13.32;10.25;;;;;;;16.59;100.00;94401.66;1649750;86;21210;-57
2022/09/09 07:34:07;;;;;;;18.87;16.07;;;;;;;16.60;100.00;94410.12;1653030;84;21107;-53
2022/09/09 07:36:39;;;;;;;15.88;12.88;;;;;;;16.63;100.00;94414.69;1619550;86;21253;-55
2022/09/09 07:39:13;;;;;;;14.75;12.90;;;;;;;16.74;100.00;94412.75;1675217;83;21053;-54
2022/09/09 07:41:46;;;;;;;15.28;13.13;;;;;;;16.83;100.00;94418.75;1686379;83;20999;-54
2022/09/09 07:44:21;;;;;;;17.30;13.10;;;;;;;16.91;100.00;94414.27;1687043;81;21085;-54
2022/09/09 07:46:50;;;;;;;19.20;13.30;;;;;;;17.04;100.00;94407.64;1686396;83;21031;-52
2022/09/09 07:49:19;;;;;;;13.50;11.50;;;;;;;17.18;100.00;94405.32;1682102;83;21229;-55
2022/09/09 07:51:47;;;;;;;12.05;10.88;;;;;;;17.30;99.14;94410.44;1692796;83;21125;-52
2022/09/09 07:54:20;;;;;;;15.00;13.10;;;;;;;17.44;98.41;94411.56;1682237;83;22148;-54
2022/09/09 07:56:47;;;;;;;13.72;12.33;;;;;;;17.51;97.58;94408.30;1666593;84;21049;-54
2022/09/09 07:59:14;;;;;;;14.18;12.65;;;;;;;17.63;96.67;94410.61;1683818;81;21008;-55
2022/09/09 08:01:47;;;;;;;12.10;10.85;;;;;;;17.72;96.23;94419.37;1667767;84;21428;-55
2022/09/09 08:04:17;;;;;;;14.30;11.70;;;;;;;17.87;95.95;94422.09;1662421;83;21084;-54
2022/09/09 08:06:48;;;;;;;17.23;14.30;;;;;;;17.98;95.36;94418.58;1672067;83;21035;-54
2022/09/09 08:09:17;;;;;;;18.35;12.55;;;;;;;18.08;95.12;94418.45;1664530;84;21096;-55
2022/09/09 08:11:44;;;;;;;13.85;12.45;;;;;;;18.19;94.46;94420.63;1634307;84;22010;-53
2022/09/09 08:14:11;;;;;;;15.05;13.40;;;;;;;18.29;93.81;94415.73;1639899;86;21416;-53
2022/09/09 08:16:42;;;;;;;13.50;11.75;;;;;;;18.37;92.83;94416.77;1661392;83;21066;-57
2022/09/09 08:19:09;;;;;;;15.72;12.95;;;;;;;18.49;92.59;94421.06;1665140;84;20998;-53
2022/09/09 08:21:38;;;;;;;19.85;14.30;;;;;;;18.62;91.85;94417.80;1678058;83;21077;-54
2022/09/09 08:24:06;;;;;;;16.00;14.40;;;;;;;18.72;91.31;94419.83;1678699;83;21184;-54
2022/09/09 08:26:37;;;;;;;15.58;13.53;;;;;;;18.83;91.15;94419.80;1669727;82;21904;-56
2022/09/09 08:29:06;;;;;;;23.67;16.82;;;;;;;18.94;90.44;94423.98;1676558;83;21020;-54
2022/09/09 08:31:45;;;;;;;19.92;16.10;;;;;;;19.08;89.74;94427.76;1649408;85;21081;-54
2022/09/09 08:34:12;;;;;;;17.25;15.45;;;;;;;19.19;89.47;94430.57;1688411;82;21040;-54
2022/09/09 08:36:44;;;;;;;15.35;13.85;;;;;;;19.36;89.04;94433.44;1692239;83;21600;-58
2022/09/09 08:39:14;;;;;;;17.23;15.38;;;;;;;19.49;88.83;94425.28;1676227;83;21150;-55
2022/09/09 08:42:02;;;;;;;15.95;12.68;;;;;;;19.62;87.86;94424.11;1671928;83;21108;-54
2022/09/09 08:44:49;;;;;;;15.60;13.15;;;;;;;19.78;87.04;94430.23;1687908;83;21034;-56
2022/09/09 08:47:46;;;;;;;21.80;16.12;;;;;;;19.92;86.05;94423.58;1702686;84;22257;-56
2022/09/09 08:50:24;;;;;;;21.95;17.35;;;;;;;20.04;85.94;94425.08;1683137;83;21068;-54
2022/09/09 08:53:20;;;;;;;17.40;14.93;;;;;;;20.09;85.93;94421.49;1658746;83;21338;-54
2022/09/09 08:55:59;;;;;;;16.70;13.45;;;;;;;20.17;84.82;94425.27;1653640;83;21045;-53
2022/09/09 08:58:31;;;;;;;16.77;14.68;;;;;;;20.23;84.23;94430.18;1654707;83;21053;-54
2022/09/09 09:01:34;;;;;;;19.37;14.25;;;;;;;20.32;82.94;94436.84;1651094;85;21073;-56
2022/09/09 09:04:46;;;;;;;17.30;14.33;;;;;;;20.35;82.07;94433.04;1673767;83;21120;-57
2022/09/09 09:07:37;;;;;;;13.53;12.00;;;;;;;20.35;81.81;94434.44;1645424;86;21464;-56
2022/09/09 09:10:35;;;;;;;16.57;12.17;;;;;;;20.45;81.19;94433.60;1663902;83;21210;-57
2022/09/09 09:13:03;;;;;;;15.15;12.10;;;;;;;20.50;80.92;94434.19;1667585;85;21517;-55
2022/09/09 09:15:36;;;;;;;17.87;15.05;;;;;;;20.52;79.05;94442.08;1662129;83;21004;-53
2022/09/09 09:18:04;;;;;;;;;;;;;;;20.51;78.34;94439.91;1668538;83;21144;-54
2022/09/09 09:20:56;;;;;;;22.00;10.82;;;;;;;20.53;78.78;94433.80;1654201;84;22275;-51
2022/09/09 09:23:26;;;;;;;30.37;10.95;;;;;;;20.51;78.86;94434.94;1649118;84;21055;-53
2022/09/09 09:25:59;;;;;;;13.20;10.38;;;;;;;20.53;78.78;94435.20;1672830;84;21012;-53
2022/09/09 09:28:29;;;;;;;25.10;11.60;;;;;;;20.58;78.58;94427.41;1681335;83;20989;-53
2022/09/09 09:31:07;;;;;;;13.93;12.33;;;;;;;20.68;78.70;94435.58;1661630;84;21587;-53
2022/09/09 09:33:52;;;;;;;11.63;9.93;;;;;;;20.78;78.32;94432.59;1636747;86;21215;-51
2022/09/09 09:36:25;;;;;;;11.08;9.98;;;;;;;20.80;78.20;94431.42;1630038;86;21025;-53
2022/09/09 09:38:59;;;;;;;27.77;11.28;;;;;;;20.82;77.98;94434.45;1650400;85;21690;-54
2022/09/09 09:41:39;;;;;;;26.25;12.60;;;;;;;20.99;77.15;94437.28;1671208;84;21149;-53
2022/09/09 09:44:28;;;;;;;16.73;12.58;;;;;;;21.15;78.16;94435.60;1662267;85;21135;-52
2022/09/09 09:47:17;;;;;;;12.85;10.98;;;;;;;21.44;77.32;94432.76;1682278;83;21155;-55
2022/09/09 09:49:59;;;;;;;14.47;11.80;;;;;;;21.66;75.83;94435.34;1672477;84;20984;-53
2022/09/09 09:52:30;;;;;;;18.45;10.55;;;;;;;21.92;74.99;94430.59;1649541;82;21087;-54
2022/09/09 09:55:01;;;;;;;10.48;9.48;;;;;;;22.25;73.39;94434.47;1653213;83;21565;-53
2022/09/09 09:57:31;;;;;;;15.78;10.18;;;;;;;22.59;72.85;94440.39;1654499;84;21038;-56
2022/09/09 10:00:21;;;;;;;18.50;10.32;;;;;;;22.78;72.79;94439.71;1683550;85;21830;-55
2022/09/09 10:02:52;;;;;;;11.28;9.83;;;;;;;22.86;71.92;94443.42;1673833;83;22256;-55
2022/09/09 10:05:28;;;;;;;12.47;8.88;;;;;;;22.94;71.11;94439.47;1647925;83;21572;-55
2022/09/09 10:08:11;;;;;;;10.15;8.73;;;;;;;22.96;70.96;94440.31;1679341;83;21026;-54
2022/09/09 10:11:00;;;;;;;11.90;8.65;;;;;;;22.91;70.31;94438.37;1666355;83;21179;-56
2022/09/09 10:14:02;;;;;;;15.72;9.00;;;;;;;22.88;68.93;94437.37;1656307;84;21179;-54
2022/09/09 10:16:44;;;;;;;10.58;7.87;;;;;;;23.23;69.27;94432.86;1604452;86;21070;-55
2022/09/09 10:19:15;;;;;;;16.00;8.20;;;;;;;23.81;68.96;94435.63;1680474;85;21020;-54
2022/09/09 10:22:06;;;;;;;17.35;9.88;;;;;;;24.48;67.33;94423.88;1686478;83;21012;-54
2022/09/09 10:25:03;;;;;;;8.33;7.00;;;;;;;25.02;65.33;94423.28;1691524;84;21038;-55
2022/09/09 10:28:16;;;;;;;16.15;6.83;;;;;;;25.13;62.60;94418.02;1685565;84;21129;-56
2022/09/09 10:31:22;;;;;;;7.87;6.33;;;;;;;24.97;62.55;94423.41;1642665;87;21109;-54
2022/09/09 10:34:19;;;;;;;8.43;6.10;;;;;;;25.19;62.58;94435.55;1642304;85;21042;-55
2022/09/09 10:36:49;;;;;;;134.80;13.85;;;;;;;25.83;60.56;94437.86;1605999;89;21148;-55
2022/09/09 10:39:36;;;;;;;10.88;5.37;;;;;;;26.58;56.52;94432.75;1588226;87;21532;-55
2022/09/09 10:42:16;;;;;;;6.25;4.70;;;;;;;27.10;54.13;94433.58;1683752;82;21385;-54
2022/09/09 10:45:24;;;;;;;8.73;5.30;;;;;;;27.34;52.57;94425.97;1671544;84;21127;-54
2022/09/09 10:48:17;;;;;;;10.95;5.83;;;;;;;27.75;51.32;94422.77;1650628;84;21529;-55
2022/09/09 10:51:06;;;;;;;8.05;5.45;;;;;;;27.72;51.87;94420.31;1678601;84;21129;-56
2022/09/09 10:53:48;;;;;;;8.68;5.25;;;;;;;27.52;51.63;94425.48;1621707;86;21028;-54
2022/09/09 10:56:18;;;;;;;8.75;4.90;;;;;;;27.32;52.14;94426.42;1621718;86;21835;-54
2022/09/09 10:58:49;;;;;;;7.62;4.75;;;;;;;26.92;52.96;94433.88;1657720;84;21023;-55
2022/09/09 11:01:22;;;;;;;10.75;6.12;;;;;;;26.58;53.19;94431.98;1665789;83;21086;-54
2022/09/09 11:03:58;;;;;;;6.40;5.35;;;;;;;26.19;54.90;94431.71;1616198;85;21089;-55
2022/09/09 11:06:32;;;;;;;8.68;5.05;;;;;;;25.81;55.81;94430.61;1684624;84;21056;-54
2022/09/09 11:09:01;;;;;;;9.05;5.20;;;;;;;25.53;56.20;94423.54;1651703;86;21145;-49
2022/09/09 11:11:39;;;;;;;8.00;5.47;;;;;;;25.21;56.67;94428.72;1641668;83;21213;-54
2022/09/09 11:14:37;;;;;;;13.22;5.30;;;;;;;25.01;57.68;94437.89;1671346;84;21191;-55
2022/09/09 11:17:22;;;;;;;5.75;5.17;;;;;;;24.73;58.10;94439.21;1660634;85;21065;-54
2022/09/09 11:19:49;;;;;;;5.75;5.00;;;;;;;24.69;58.35;94435.95;1677738;85;21077;-56
2022/09/09 11:22:38;;;;;;;7.60;5.70;;;;;;;24.75;58.48;94436.61;1668637;83;22092;-59
2022/09/09 11:25:21;;;;;;;7.62;5.17;;;;;;;24.80;58.22;94435.71;1632918;85;21006;-58
2022/09/09 11:27:54;;;;;;;6.45;5.35;;;;;;;25.02;58.32;94438.00;1666244;85;21409;-59
2022/09/09 11:30:25;;;;;;;5.45;4.67;;;;;;;25.23;58.10;94445.18;1564790;87;21170;-58
2022/09/09 11:33:15;;;;;;;6.05;5.45;;;;;;;25.43;57.97;94436.59;1648201;85;21346;-58
2022/09/09 11:36:00;;;;;;;7.10;5.60;;;;;;;25.68;57.57;94430.70;1671371;83;21537;-56
2022/09/09 11:38:30;;;;;;;14.75;4.92;;;;;;;26.26;56.63;94428.16;1692434;83;21507;-58
2022/09/09 11:41:06;;;;;;;6.67;4.92;;;;;;;26.95;55.54;94425.04;1662200;84;21033;-56
2022/09/09 11:43:43;;;;;;;6.72;5.47;;;;;;;27.29;54.09;94425.50;1683150;83;21077;-57
2022/09/09 11:46:10;;;;;;;7.87;5.20;;;;;;;27.60;53.01;94424.16;1661965;84;22129;-58
2022/09/09 11:48:45;;;;;;;9.75;5.62;;;;;;;27.82;52.89;94422.67;1678752;83;21262;-55
2022/09/09 11:51:15;;;;;;;9.48;5.30;;;;;;;28.23;52.06;94422.97;1665981;84;21056;-56
2022/09/09 11:54:05;;;;;;;12.60;5.03;;;;;;;28.26;51.93;94423.98;1672908;83;21042;-55